Kullen, Sweden

1:34 AM CET on December 23, 2014 (GMT +0100)
Hoganas south | Change Station
CLOSE
Current Station
Personal Weather Station
Location: Höganäs, SKåNE LäN
Elevation: 16 ft
Nearby Weather Stations

Elev 16 ft 56.20 °N, 12.57 °E | Updated 4 minutes ago

Mostly Cloudy
Mostly Cloudy
44.2 °F
Feels Like 44 °F
N
0.7
Wind Variable Wind from SW
Gusts 8.3 mph

Today
High -- | Low -- °F
--% Chance of Precip.
Yesterday
High -- | Low -- °F
Precip. -- in
8:42 AM 3:35 PM
New Moon, 1% visible
Pressure 29.50 in
Visibility 6.2 miles
Clouds Few 1700 ft
Scattered Clouds 2200 ft
Mostly Cloudy 2900 ft
Windchill 44 °F
Dew Point 7 °F
Humidity 21%
Rainfall 0.00 in
Snow Depth Not available.
UV 0 out of 12
Pollen Not available.
Air Quality Not available.
Flu Activity Not available.
METAR ESTA 230020Z AUTO 25012KT 9999 FEW017/// SCT022/// BKN029/// 06/05 Q0999

More Conditions Fewer Conditions

Pressure 29.50 in
Visibility 6.2 miles
Clouds Few 1700 ft
Scattered Clouds 2200 ft
Mostly Cloudy 2900 ft
Windchill 44 °F
Dew Point 7 °F
Humidity 21%
Rainfall 0.00 in
Snow Depth Not available.
UV 0 out of 12
Pollen Not available.
Air Quality Not available.
Flu Activity Not available.
METAR ESTA 230020Z AUTO 25012KT 9999 FEW017/// SCT022/// BKN029/// 06/05 Q0999

More Conditions Fewer Conditions

10-Day Weather Forecast

Almanac

Astronomy

Dec. 23, 2014 Rise Set
Actual Time
Civil Twilight
Nautical Twilight
Astronomical Twilight
Moon
Length of Visible Light
Length of Day
Tomorrow will be .
, % of the Moon is Illuminated

Today's Extremes

Country Highs Country Lows

Community

WunderPhotos

Upload Photos

1,779,738 photos uploaded!

WunderBlogs® & News

Nearby

Air Quality

  Air Quality AQ Index Pollutant
Not available.

Snow Depth

Station Depth Elevation

Earthquake Activity

City Distance Mag. Time & Date
Minimum magnitude displayed is 2.5.

Coastal Water Temperatures

Place Temperature

Nearby Weather Stations